sensor_id;sensor_type;location;lat;lon;timestamp;temperature;humidity
19680;DHT22;9989;48.962;9.182;2023-04-25T00:02:12;10.60;99.90
19680;DHT22;9989;48.962;9.182;2023-04-25T00:04:38;10.60;99.90
19680;DHT22;9989;48.962;9.182;2023-04-25T00:07:08;10.60;99.90
19680;DHT22;9989;48.962;9.182;2023-04-25T00:09:33;10.60;99.90
19680;DHT22;9989;48.962;9.182;2023-04-25T00:11:59;10.60;99.90
19680;DHT22;9989;48.962;9.182;2023-04-25T00:14:26;10.70;99.90
19680;DHT22;9989;48.962;9.182;2023-04-25T00:16:53;10.70;99.90
19680;DHT22;9989;48.962;9.182;2023-04-25T00:19:19;10.70;99.90
19680;DHT22;9989;48.962;9.182;2023-04-25T00:21:48;10.80;99.90
19680;DHT22;9989;48.962;9.182;2023-04-25T00:24:14;10.80;99.90
19680;DHT22;9989;48.962;9.182;2023-04-25T00:26:39;10.80;99.90
19680;DHT22;9989;48.962;9.182;2023-04-25T00:29:05;10.80;99.90
19680;DHT22;9989;48.962;9.182;2023-04-25T00:31:30;10.80;99.90
19680;DHT22;9989;48.962;9.182;2023-04-25T00:33:56;10.80;99.90
19680;DHT22;9989;48.962;9.182;2023-04-25T00:36:22;10.90;99.90
19680;DHT22;9989;48.962;9.182;2023-04-25T00:38:47;10.90;99.90
19680;DHT22;9989;48.962;9.182;2023-04-25T00:41:44;10.90;99.90
19680;DHT22;9989;48.962;9.182;2023-04-25T00:44:11;10.80;99.90
19680;DHT22;9989;48.962;9.182;2023-04-25T00:46:38;10.80;99.90
19680;DHT22;9989;48.962;9.182;2023-04-25T00:49:04;10.70;99.90
19680;DHT22;9989;48.962;9.182;2023-04-25T00:51:30;10.60;99.90
19680;DHT22;9989;48.962;9.182;2023-04-25T00:53:56;10.50;99.90
19680;DHT22;9989;48.962;9.182;2023-04-25T00:56:22;10.40;99.90
19680;DHT22;9989;48.962;9.182;2023-04-25T00:58:48;10.30;99.90
19680;DHT22;9989;48.962;9.182;2023-04-25T01:01:14;10.20;99.90
19680;DHT22;9989;48.962;9.182;2023-04-25T01:03:40;10.10;99.90
19680;DHT22;9989;48.962;9.182;2023-04-25T01:06:10;10.10;99.90
19680;DHT22;9989;48.962;9.182;2023-04-25T01:08:38;10.10;99.90
19680;DHT22;9989;48.962;9.182;2023-04-25T01:11:04;10.10;99.90
19680;DHT22;9989;48.962;9.182;2023-04-25T01:13:30;10.10;99.90
19680;DHT22;9989;48.962;9.182;2023-04-25T01:15:58;10.20;99.90
19680;DHT22;9989;48.962;9.182;2023-04-25T01:18:23;10.20;99.90
19680;DHT22;9989;48.962;9.182;2023-04-25T01:20:51;10.20;99.90
19680;DHT22;9989;48.962;9.182;2023-04-25T01:23:18;10.20;99.90
19680;DHT22;9989;48.962;9.182;2023-04-25T01:25:44;10.20;99.90
19680;DHT22;9989;48.962;9.182;2023-04-25T01:28:10;10.20;99.90
19680;DHT22;9989;48.962;9.182;2023-04-25T01:30:36;10.20;99.90
19680;DHT22;9989;48.962;9.182;2023-04-25T01:33:03;10.20;99.90
19680;DHT22;9989;48.962;9.182;2023-04-25T01:35:30;10.20;99.90
19680;DHT22;9989;48.962;9.182;2023-04-25T01:37:57;10.10;99.90
19680;DHT22;9989;48.962;9.182;2023-04-25T01:40:24;10.10;99.90
19680;DHT22;9989;48.962;9.182;2023-04-25T01:42:50;10.00;99.90
19680;DHT22;9989;48.962;9.182;2023-04-25T01:45:17;10.00;99.90
19680;DHT22;9989;48.962;9.182;2023-04-25T01:47:43;10.00;99.90
19680;DHT22;9989;48.962;9.182;2023-04-25T01:50:12;10.00;99.90
19680;DHT22;9989;48.962;9.182;2023-04-25T01:52:38;10.00;99.90
19680;DHT22;9989;48.962;9.182;2023-04-25T01:55:05;10.00;99.90
19680;DHT22;9989;48.962;9.182;2023-04-25T01:57:30;10.10;99.90
19680;DHT22;9989;48.962;9.182;2023-04-25T02:00:01;10.20;99.90
19680;DHT22;9989;48.962;9.182;2023-04-25T02:02:28;10.10;99.90
19680;DHT22;9989;48.962;9.182;2023-04-25T02:04:53;10.20;99.90
19680;DHT22;9989;48.962;9.182;2023-04-25T02:07:20;10.20;99.90
19680;DHT22;9989;48.962;9.182;2023-04-25T02:09:45;10.20;99.90
19680;DHT22;9989;48.962;9.182;2023-04-25T02:12:11;10.20;99.90
19680;DHT22;9989;48.962;9.182;2023-04-25T02:14:37;10.20;99.90
19680;DHT22;9989;48.962;9.182;2023-04-25T02:17:03;10.20;99.90
19680;DHT22;9989;48.962;9.182;2023-04-25T02:19:28;10.20;99.90
19680;DHT22;9989;48.962;9.182;2023-04-25T02:21:54;10.20;99.90
19680;DHT22;9989;48.962;9.182;2023-04-25T02:24:19;10.10;99.90
19680;DHT22;9989;48.962;9.182;2023-04-25T02:26:45;10.00;99.90
19680;DHT22;9989;48.962;9.182;2023-04-25T02:29:12;10.00;99.90
19680;DHT22;9989;48.962;9.182;2023-04-25T02:31:38;9.90;99.90
19680;DHT22;9989;48.962;9.182;2023-04-25T02:34:03;10.00;99.90
19680;DHT22;9989;48.962;9.182;2023-04-25T02:36:30;10.00;99.90
19680;DHT22;9989;48.962;9.182;2023-04-25T02:38:59;9.90;99.90
19680;DHT22;9989;48.962;9.182;2023-04-25T02:42:02;10.00;99.90
19680;DHT22;9989;48.962;9.182;2023-04-25T02:44:28;10.00;99.90
19680;DHT22;9989;48.962;9.182;2023-04-25T02:46:54;10.10;99.90
19680;DHT22;9989;48.962;9.182;2023-04-25T02:49:19;10.10;99.90
19680;DHT22;9989;48.962;9.182;2023-04-25T02:51:45;10.10;99.90
19680;DHT22;9989;48.962;9.182;2023-04-25T02:54:10;10.10;99.90
19680;DHT22;9989;48.962;9.182;2023-04-25T02:56:36;10.10;99.90
19680;DHT22;9989;48.962;9.182;2023-04-25T02:59:01;10.20;99.90
19680;DHT22;9989;48.962;9.182;2023-04-25T03:01:27;10.20;99.90
19680;DHT22;9989;48.962;9.182;2023-04-25T03:03:52;10.10;99.90
19680;DHT22;9989;48.962;9.182;2023-04-25T03:06:18;10.20;99.90
19680;DHT22;9989;48.962;9.182;2023-04-25T03:08:43;10.20;99.90
19680;DHT22;9989;48.962;9.182;2023-04-25T03:11:09;10.20;99.90
19680;DHT22;9989;48.962;9.182;2023-04-25T03:13:35;10.20;99.90
19680;DHT22;9989;48.962;9.182;2023-04-25T03:16:01;10.20;99.90
19680;DHT22;9989;48.962;9.182;2023-04-25T03:18:26;10.20;99.90
19680;DHT22;9989;48.962;9.182;2023-04-25T03:20:52;10.20;99.90
19680;DHT22;9989;48.962;9.182;2023-04-25T03:23:17;10.30;99.90
19680;DHT22;9989;48.962;9.182;2023-04-25T03:25:43;10.30;99.90
19680;DHT22;9989;48.962;9.182;2023-04-25T03:28:09;10.30;99.90
19680;DHT22;9989;48.962;9.182;2023-04-25T03:30:34;10.30;99.90
19680;DHT22;9989;48.962;9.182;2023-04-25T03:33:00;10.30;99.90
19680;DHT22;9989;48.962;9.182;2023-04-25T03:35:26;10.20;99.90
19680;DHT22;9989;48.962;9.182;2023-04-25T03:37:51;10.20;99.90
19680;DHT22;9989;48.962;9.182;2023-04-25T03:40:17;10.20;99.90
19680;DHT22;9989;48.962;9.182;2023-04-25T03:42:42;10.20;99.90
19680;DHT22;9989;48.962;9.182;2023-04-25T03:45:08;10.20;99.90
19680;DHT22;9989;48.962;9.182;2023-04-25T03:47:34;10.20;99.90
19680;DHT22;9989;48.962;9.182;2023-04-25T03:49:59;10.10;99.90
19680;DHT22;9989;48.962;9.182;2023-04-25T03:52:27;10.10;99.90
19680;DHT22;9989;48.962;9.182;2023-04-25T03:54:52;10.10;99.90
19680;DHT22;9989;48.962;9.182;2023-04-25T03:57:18;10.10;99.90
19680;DHT22;9989;48.962;9.182;2023-04-25T03:59:44;10.00;99.90
19680;DHT22;9989;48.962;9.182;2023-04-25T04:02:10;10.00;99.90
19680;DHT22;9989;48.962;9.182;2023-04-25T04:04:35;10.00;99.90
19680;DHT22;9989;48.962;9.182;2023-04-25T04:07:01;10.00;99.90
19680;DHT22;9989;48.962;9.182;2023-04-25T04:09:27;10.00;99.90
19680;DHT22;9989;48.962;9.182;2023-04-25T04:11:53;10.00;99.90
19680;DHT22;9989;48.962;9.182;2023-04-25T04:14:18;10.00;99.90
19680;DHT22;9989;48.962;9.182;2023-04-25T04:16:44;10.00;99.90
19680;DHT22;9989;48.962;9.182;2023-04-25T04:19:10;10.00;99.90
19680;DHT22;9989;48.962;9.182;2023-04-25T04:21:35;10.00;99.90
19680;DHT22;9989;48.962;9.182;2023-04-25T04:24:01;10.00;99.90
19680;DHT22;9989;48.962;9.182;2023-04-25T04:26:27;10.00;99.90
19680;DHT22;9989;48.962;9.182;2023-04-25T04:28:53;9.90;99.90
19680;DHT22;9989;48.962;9.182;2023-04-25T04:31:20;9.90;99.90
19680;DHT22;9989;48.962;9.182;2023-04-25T04:33:47;9.90;99.90
19680;DHT22;9989;48.962;9.182;2023-04-25T04:36:13;9.90;99.90
19680;DHT22;9989;48.962;9.182;2023-04-25T04:38:39;9.90;99.90
19680;DHT22;9989;48.962;9.182;2023-04-25T04:44:27;9.90;99.90
19680;DHT22;9989;48.962;9.182;2023-04-25T04:47:04;9.90;99.90
19680;DHT22;9989;48.962;9.182;2023-04-25T04:49:31;9.90;99.90
19680;DHT22;9989;48.962;9.182;2023-04-25T04:51:57;9.90;99.90
19680;DHT22;9989;48.962;9.182;2023-04-25T04:54:23;10.00;99.90
19680;DHT22;9989;48.962;9.182;2023-04-25T04:56:48;10.00;99.90
19680;DHT22;9989;48.962;9.182;2023-04-25T04:59:14;10.10;99.90
19680;DHT22;9989;48.962;9.182;2023-04-25T05:01:40;10.10;99.90
19680;DHT22;9989;48.962;9.182;2023-04-25T05:04:06;10.10;99.90
19680;DHT22;9989;48.962;9.182;2023-04-25T05:06:31;10.10;99.90
19680;DHT22;9989;48.962;9.182;2023-04-25T05:08:57;10.10;99.90
19680;DHT22;9989;48.962;9.182;2023-04-25T05:11:24;10.10;99.90
19680;DHT22;9989;48.962;9.182;2023-04-25T05:13:52;10.10;99.90
19680;DHT22;9989;48.962;9.182;2023-04-25T05:16:18;10.20;99.90
19680;DHT22;9989;48.962;9.182;2023-04-25T05:18:43;10.20;99.90
19680;DHT22;9989;48.962;9.182;2023-04-25T05:21:09;10.20;99.90
19680;DHT22;9989;48.962;9.182;2023-04-25T05:23:34;10.20;99.90
19680;DHT22;9989;48.962;9.182;2023-04-25T05:26:00;10.30;99.90
19680;DHT22;9989;48.962;9.182;2023-04-25T05:28:26;10.30;99.90
19680;DHT22;9989;48.962;9.182;2023-04-25T05:30:51;10.30;99.90
19680;DHT22;9989;48.962;9.182;2023-04-25T05:33:17;10.40;99.90
19680;DHT22;9989;48.962;9.182;2023-04-25T05:35:43;10.40;99.90
19680;DHT22;9989;48.962;9.182;2023-04-25T05:38:09;10.50;99.90
19680;DHT22;9989;48.962;9.182;2023-04-25T05:40:35;10.60;99.90
19680;DHT22;9989;48.962;9.182;2023-04-25T05:43:00;10.60;99.90
19680;DHT22;9989;48.962;9.182;2023-04-25T05:45:26;10.60;99.90
19680;DHT22;9989;48.962;9.182;2023-04-25T05:47:52;10.70;99.90
19680;DHT22;9989;48.962;9.182;2023-04-25T05:50:17;10.70;99.90
19680;DHT22;9989;48.962;9.182;2023-04-25T05:52:43;10.70;99.90
19680;DHT22;9989;48.962;9.182;2023-04-25T05:55:09;10.70;99.90
19680;DHT22;9989;48.962;9.182;2023-04-25T05:57:34;10.70;99.90
19680;DHT22;9989;48.962;9.182;2023-04-25T06:00:01;10.70;99.90
19680;DHT22;9989;48.962;9.182;2023-04-25T06:02:26;10.70;99.90
19680;DHT22;9989;48.962;9.182;2023-04-25T06:04:52;10.70;99.90
19680;DHT22;9989;48.962;9.182;2023-04-25T06:07:21;10.70;99.90
19680;DHT22;9989;48.962;9.182;2023-04-25T06:09:47;10.80;99.90
19680;DHT22;9989;48.962;9.182;2023-04-25T06:12:12;10.80;99.90
19680;DHT22;9989;48.962;9.182;2023-04-25T06:14:38;10.90;99.90
19680;DHT22;9989;48.962;9.182;2023-04-25T06:17:04;11.00;99.90
19680;DHT22;9989;48.962;9.182;2023-04-25T06:19:34;11.10;99.90
19680;DHT22;9989;48.962;9.182;2023-04-25T06:22:01;11.20;99.90
19680;DHT22;9989;48.962;9.182;2023-04-25T06:24:27;11.40;99.90
19680;DHT22;9989;48.962;9.182;2023-04-25T06:26:53;11.40;99.90
19680;DHT22;9989;48.962;9.182;2023-04-25T06:29:19;11.40;99.90
19680;DHT22;9989;48.962;9.182;2023-04-25T06:31:44;11.50;99.90
19680;DHT22;9989;48.962;9.182;2023-04-25T06:34:10;11.60;99.90
19680;DHT22;9989;48.962;9.182;2023-04-25T06:36:35;11.70;99.90
19680;DHT22;9989;48.962;9.182;2023-04-25T06:39:01;11.90;99.90
19680;DHT22;9989;48.962;9.182;2023-04-25T06:42:01;11.90;99.90
19680;DHT22;9989;48.962;9.182;2023-04-25T06:44:27;11.90;99.90
19680;DHT22;9989;48.962;9.182;2023-04-25T06:46:54;12.00;99.90
19680;DHT22;9989;48.962;9.182;2023-04-25T06:49:20;12.10;99.90
19680;DHT22;9989;48.962;9.182;2023-04-25T06:51:45;12.30;99.90
19680;DHT22;9989;48.962;9.182;2023-04-25T06:54:11;12.30;99.90
19680;DHT22;9989;48.962;9.182;2023-04-25T06:56:36;12.40;99.90
19680;DHT22;9989;48.962;9.182;2023-04-25T06:59:02;12.50;99.90
19680;DHT22;9989;48.962;9.182;2023-04-25T07:01:28;12.50;99.90
19680;DHT22;9989;48.962;9.182;2023-04-25T07:03:53;12.60;99.90
19680;DHT22;9989;48.962;9.182;2023-04-25T07:06:19;12.60;99.90
19680;DHT22;9989;48.962;9.182;2023-04-25T07:08:44;12.50;99.90
19680;DHT22;9989;48.962;9.182;2023-04-25T07:11:10;12.50;99.90
19680;DHT22;9989;48.962;9.182;2023-04-25T07:13:35;12.40;99.90
19680;DHT22;9989;48.962;9.182;2023-04-25T07:16:01;12.40;99.90
19680;DHT22;9989;48.962;9.182;2023-04-25T07:18:27;12.30;99.90
19680;DHT22;9989;48.962;9.182;2023-04-25T07:20:53;12.30;99.90
19680;DHT22;9989;48.962;9.182;2023-04-25T07:23:18;12.20;99.90
19680;DHT22;9989;48.962;9.182;2023-04-25T07:25:44;12.20;99.90
19680;DHT22;9989;48.962;9.182;2023-04-25T07:28:09;12.10;99.90
19680;DHT22;9989;48.962;9.182;2023-04-25T07:30:35;12.10;99.90
19680;DHT22;9989;48.962;9.182;2023-04-25T07:33:00;12.00;99.90
19680;DHT22;9989;48.962;9.182;2023-04-25T07:35:26;11.90;99.90
19680;DHT22;9989;48.962;9.182;2023-04-25T07:37:52;11.80;99.90
19680;DHT22;9989;48.962;9.182;2023-04-25T07:40:17;11.80;99.90
19680;DHT22;9989;48.962;9.182;2023-04-25T07:42:43;11.80;99.90
19680;DHT22;9989;48.962;9.182;2023-04-25T07:45:09;11.80;99.90
19680;DHT22;9989;48.962;9.182;2023-04-25T07:47:35;11.80;99.90
19680;DHT22;9989;48.962;9.182;2023-04-25T07:50:02;11.90;99.90
19680;DHT22;9989;48.962;9.182;2023-04-25T07:52:27;11.80;99.90
19680;DHT22;9989;48.962;9.182;2023-04-25T07:54:53;11.80;99.90
19680;DHT22;9989;48.962;9.182;2023-04-25T07:57:19;11.80;99.90
19680;DHT22;9989;48.962;9.182;2023-04-25T07:59:45;11.90;99.90
19680;DHT22;9989;48.962;9.182;2023-04-25T08:02:11;11.90;99.90
19680;DHT22;9989;48.962;9.182;2023-04-25T08:04:36;11.80;99.90
19680;DHT22;9989;48.962;9.182;2023-04-25T08:07:02;11.90;99.90
19680;DHT22;9989;48.962;9.182;2023-04-25T08:09:27;11.80;99.90
19680;DHT22;9989;48.962;9.182;2023-04-25T08:11:54;11.70;99.90
19680;DHT22;9989;48.962;9.182;2023-04-25T08:14:20;11.60;99.90
19680;DHT22;9989;48.962;9.182;2023-04-25T08:16:45;11.60;99.90
19680;DHT22;9989;48.962;9.182;2023-04-25T08:19:11;11.50;99.90
19680;DHT22;9989;48.962;9.182;2023-04-25T08:21:37;11.50;99.90
19680;DHT22;9989;48.962;9.182;2023-04-25T08:24:03;11.40;99.90
19680;DHT22;9989;48.962;9.182;2023-04-25T08:26:29;11.30;99.90
19680;DHT22;9989;48.962;9.182;2023-04-25T08:28:54;11.30;99.90
19680;DHT22;9989;48.962;9.182;2023-04-25T08:31:20;11.30;99.90
19680;DHT22;9989;48.962;9.182;2023-04-25T08:33:46;11.30;99.90
19680;DHT22;9989;48.962;9.182;2023-04-25T08:36:12;11.30;99.90
19680;DHT22;9989;48.962;9.182;2023-04-25T08:38:37;11.20;99.90
19680;DHT22;9989;48.962;9.182;2023-04-25T08:44:25;11.30;99.90
19680;DHT22;9989;48.962;9.182;2023-04-25T08:46:52;11.30;99.90
19680;DHT22;9989;48.962;9.182;2023-04-25T08:49:18;11.30;99.90
19680;DHT22;9989;48.962;9.182;2023-04-25T08:51:45;11.40;99.90
19680;DHT22;9989;48.962;9.182;2023-04-25T08:54:16;11.40;99.90
19680;DHT22;9989;48.962;9.182;2023-04-25T08:56:45;11.40;99.90
19680;DHT22;9989;48.962;9.182;2023-04-25T08:59:12;11.50;99.90
19680;DHT22;9989;48.962;9.182;2023-04-25T09:01:38;11.50;99.90
19680;DHT22;9989;48.962;9.182;2023-04-25T09:04:03;11.60;99.90
19680;DHT22;9989;48.962;9.182;2023-04-25T09:06:30;11.70;99.90
19680;DHT22;9989;48.962;9.182;2023-04-25T09:09:02;11.80;99.90
19680;DHT22;9989;48.962;9.182;2023-04-25T09:11:29;11.90;99.90
19680;DHT22;9989;48.962;9.182;2023-04-25T09:14:30;11.90;99.90
19680;DHT22;9989;48.962;9.182;2023-04-25T09:19:31;12.20;99.90
19680;DHT22;9989;48.962;9.182;2023-04-25T09:21:58;12.30;99.90
19680;DHT22;9989;48.962;9.182;2023-04-25T09:24:50;12.40;99.90
19680;DHT22;9989;48.962;9.182;2023-04-25T09:27:20;12.40;99.90
19680;DHT22;9989;48.962;9.182;2023-04-25T09:29:57;12.40;99.90
19680;DHT22;9989;48.962;9.182;2023-04-25T09:32:24;12.40;99.90
19680;DHT22;9989;48.962;9.182;2023-04-25T09:34:57;12.50;99.90
19680;DHT22;9989;48.962;9.182;2023-04-25T09:37:24;12.50;99.90
19680;DHT22;9989;48.962;9.182;2023-04-25T09:39:58;12.50;99.90
19680;DHT22;9989;48.962;9.182;2023-04-25T09:42:26;12.40;99.90
19680;DHT22;9989;48.962;9.182;2023-04-25T09:44:55;12.40;99.90
19680;DHT22;9989;48.962;9.182;2023-04-25T09:47:23;12.40;99.90
19680;DHT22;9989;48.962;9.182;2023-04-25T09:49:50;12.30;99.90
19680;DHT22;9989;48.962;9.182;2023-04-25T09:52:20;12.30;99.90
19680;DHT22;9989;48.962;9.182;2023-04-25T09:54:47;12.20;99.90
19680;DHT22;9989;48.962;9.182;2023-04-25T09:59:45;12.20;99.90
19680;DHT22;9989;48.962;9.182;2023-04-25T10:02:11;12.10;99.90
19680;DHT22;9989;48.962;9.182;2023-04-25T10:04:38;12.00;99.90
19680;DHT22;9989;48.962;9.182;2023-04-25T10:07:06;12.00;99.90
19680;DHT22;9989;48.962;9.182;2023-04-25T10:09:33;11.90;99.90
19680;DHT22;9989;48.962;9.182;2023-04-25T10:12:00;11.80;99.90
19680;DHT22;9989;48.962;9.182;2023-04-25T10:14:26;11.70;99.90
19680;DHT22;9989;48.962;9.182;2023-04-25T10:16:53;11.60;99.90
19680;DHT22;9989;48.962;9.182;2023-04-25T10:19:22;11.40;99.90
19680;DHT22;9989;48.962;9.182;2023-04-25T10:21:52;11.00;99.90
19680;DHT22;9989;48.962;9.182;2023-04-25T10:24:19;10.80;99.90
19680;DHT22;9989;48.962;9.182;2023-04-25T10:26:46;10.70;99.90
19680;DHT22;9989;48.962;9.182;2023-04-25T10:29:12;10.50;99.90
19680;DHT22;9989;48.962;9.182;2023-04-25T10:31:47;10.40;99.90
19680;DHT22;9989;48.962;9.182;2023-04-25T10:34:12;10.20;99.90
19680;DHT22;9989;48.962;9.182;2023-04-25T10:36:38;10.00;99.90
19680;DHT22;9989;48.962;9.182;2023-04-25T10:39:07;9.80;99.90
19680;DHT22;9989;48.962;9.182;2023-04-25T10:41:58;9.70;99.90
19680;DHT22;9989;48.962;9.182;2023-04-25T10:44:31;9.70;99.90
19680;DHT22;9989;48.962;9.182;2023-04-25T10:46:59;9.70;99.90
19680;DHT22;9989;48.962;9.182;2023-04-25T10:49:34;9.70;99.90
19680;DHT22;9989;48.962;9.182;2023-04-25T10:52:26;9.90;99.90
19680;DHT22;9989;48.962;9.182;2023-04-25T10:54:56;10.00;99.90
19680;DHT22;9989;48.962;9.182;2023-04-25T10:57:43;10.00;99.90
19680;DHT22;9989;48.962;9.182;2023-04-25T11:02:53;10.20;99.90
19680;DHT22;9989;48.962;9.182;2023-04-25T11:05:30;10.30;99.90
19680;DHT22;9989;48.962;9.182;2023-04-25T11:07:57;10.30;99.90
19680;DHT22;9989;48.962;9.182;2023-04-25T11:10:31;10.30;99.90
19680;DHT22;9989;48.962;9.182;2023-04-25T11:12:58;10.30;99.90
19680;DHT22;9989;48.962;9.182;2023-04-25T11:15:26;10.30;99.90
19680;DHT22;9989;48.962;9.182;2023-04-25T11:17:52;10.20;99.90
19680;DHT22;9989;48.962;9.182;2023-04-25T11:20:18;10.10;99.90
19680;DHT22;9989;48.962;9.182;2023-04-25T11:22:45;10.00;99.90
19680;DHT22;9989;48.962;9.182;2023-04-25T11:25:12;9.90;99.90
19680;DHT22;9989;48.962;9.182;2023-04-25T11:27:53;9.80;99.90
19680;DHT22;9989;48.962;9.182;2023-04-25T11:30:20;9.80;99.90
19680;DHT22;9989;48.962;9.182;2023-04-25T11:32:46;9.80;99.90
19680;DHT22;9989;48.962;9.182;2023-04-25T11:35:12;9.70;99.90
19680;DHT22;9989;48.962;9.182;2023-04-25T11:37:41;9.60;99.90
19680;DHT22;9989;48.962;9.182;2023-04-25T11:40:07;9.60;99.90
19680;DHT22;9989;48.962;9.182;2023-04-25T11:42:39;9.70;99.90
19680;DHT22;9989;48.962;9.182;2023-04-25T11:45:08;9.80;99.90
19680;DHT22;9989;48.962;9.182;2023-04-25T11:47:35;9.70;99.90
19680;DHT22;9989;48.962;9.182;2023-04-25T11:50:05;9.80;99.90
19680;DHT22;9989;48.962;9.182;2023-04-25T11:52:39;9.90;99.90
19680;DHT22;9989;48.962;9.182;2023-04-25T11:55:09;9.80;99.90
19680;DHT22;9989;48.962;9.182;2023-04-25T11:57:37;9.70;99.90
19680;DHT22;9989;48.962;9.182;2023-04-25T12:00:14;9.70;99.90
19680;DHT22;9989;48.962;9.182;2023-04-25T12:02:42;9.70;99.90
19680;DHT22;9989;48.962;9.182;2023-04-25T12:05:10;9.70;99.90
19680;DHT22;9989;48.962;9.182;2023-04-25T12:07:36;9.80;99.90
19680;DHT22;9989;48.962;9.182;2023-04-25T12:10:09;9.80;99.90
19680;DHT22;9989;48.962;9.182;2023-04-25T12:12:36;9.70;99.90
19680;DHT22;9989;48.962;9.182;2023-04-25T12:15:11;9.70;99.90
19680;DHT22;9989;48.962;9.182;2023-04-25T12:17:42;9.50;99.90
19680;DHT22;9989;48.962;9.182;2023-04-25T12:20:09;9.40;99.90
19680;DHT22;9989;48.962;9.182;2023-04-25T12:22:35;9.40;99.90
19680;DHT22;9989;48.962;9.182;2023-04-25T12:25:04;9.40;99.90
19680;DHT22;9989;48.962;9.182;2023-04-25T12:27:31;9.50;99.90
19680;DHT22;9989;48.962;9.182;2023-04-25T12:29:57;9.60;99.90
19680;DHT22;9989;48.962;9.182;2023-04-25T12:32:23;9.90;99.90
19680;DHT22;9989;48.962;9.182;2023-04-25T12:34:49;10.10;99.90
19680;DHT22;9989;48.962;9.182;2023-04-25T12:37:15;10.30;99.90
19680;DHT22;9989;48.962;9.182;2023-04-25T12:39:41;10.70;99.90
19680;DHT22;9989;48.962;9.182;2023-04-25T12:42:07;11.20;99.90
19680;DHT22;9989;48.962;9.182;2023-04-25T12:44:37;11.70;99.90
19680;DHT22;9989;48.962;9.182;2023-04-25T12:47:03;12.20;99.90
19680;DHT22;9989;48.962;9.182;2023-04-25T12:49:29;12.40;99.90
19680;DHT22;9989;48.962;9.182;2023-04-25T12:51:54;12.40;99.90
19680;DHT22;9989;48.962;9.182;2023-04-25T12:54:20;12.40;99.90
19680;DHT22;9989;48.962;9.182;2023-04-25T12:56:46;12.40;99.90
19680;DHT22;9989;48.962;9.182;2023-04-25T12:59:11;12.40;99.90
19680;DHT22;9989;48.962;9.182;2023-04-25T13:01:37;12.50;99.90
19680;DHT22;9989;48.962;9.182;2023-04-25T13:04:03;12.50;99.90
19680;DHT22;9989;48.962;9.182;2023-04-25T13:06:28;12.60;99.90
19680;DHT22;9989;48.962;9.182;2023-04-25T13:08:55;12.70;99.90
19680;DHT22;9989;48.962;9.182;2023-04-25T13:11:21;12.70;99.90
19680;DHT22;9989;48.962;9.182;2023-04-25T13:13:46;12.60;99.90
19680;DHT22;9989;48.962;9.182;2023-04-25T13:16:12;12.60;99.90
19680;DHT22;9989;48.962;9.182;2023-04-25T13:18:41;12.50;99.90
19680;DHT22;9989;48.962;9.182;2023-04-25T13:21:06;12.60;99.90
19680;DHT22;9989;48.962;9.182;2023-04-25T13:23:32;12.80;99.90
19680;DHT22;9989;48.962;9.182;2023-04-25T13:25:59;12.80;99.90
19680;DHT22;9989;48.962;9.182;2023-04-25T13:28:27;12.90;99.90
19680;DHT22;9989;48.962;9.182;2023-04-25T13:30:53;13.10;99.90
19680;DHT22;9989;48.962;9.182;2023-04-25T13:33:19;13.20;99.90
19680;DHT22;9989;48.962;9.182;2023-04-25T13:35:46;13.30;99.90
19680;DHT22;9989;48.962;9.182;2023-04-25T13:38:15;13.40;99.90
19680;DHT22;9989;48.962;9.182;2023-04-25T13:44:02;14.00;99.90
19680;DHT22;9989;48.962;9.182;2023-04-25T13:46:28;14.20;99.90
19680;DHT22;9989;48.962;9.182;2023-04-25T13:48:53;14.20;99.90
19680;DHT22;9989;48.962;9.182;2023-04-25T13:51:19;14.10;99.90
19680;DHT22;9989;48.962;9.182;2023-04-25T13:53:44;14.00;99.90
19680;DHT22;9989;48.962;9.182;2023-04-25T13:56:10;13.90;99.90
19680;DHT22;9989;48.962;9.182;2023-04-25T13:58:37;13.70;99.90
19680;DHT22;9989;48.962;9.182;2023-04-25T14:01:03;13.50;99.90
19680;DHT22;9989;48.962;9.182;2023-04-25T14:03:29;13.60;99.90
19680;DHT22;9989;48.962;9.182;2023-04-25T14:05:55;13.70;99.90
19680;DHT22;9989;48.962;9.182;2023-04-25T14:08:21;13.50;99.90
19680;DHT22;9989;48.962;9.182;2023-04-25T14:10:46;13.40;99.90
19680;DHT22;9989;48.962;9.182;2023-04-25T14:13:12;13.20;99.90
19680;DHT22;9989;48.962;9.182;2023-04-25T14:15:37;13.20;99.90
19680;DHT22;9989;48.962;9.182;2023-04-25T14:18:03;13.30;99.90
19680;DHT22;9989;48.962;9.182;2023-04-25T14:20:29;13.30;99.90
19680;DHT22;9989;48.962;9.182;2023-04-25T14:22:55;13.40;99.90
19680;DHT22;9989;48.962;9.182;2023-04-25T14:25:22;13.50;99.90
19680;DHT22;9989;48.962;9.182;2023-04-25T14:27:48;13.40;99.90
19680;DHT22;9989;48.962;9.182;2023-04-25T14:30:19;13.40;99.90
19680;DHT22;9989;48.962;9.182;2023-04-25T14:32:45;13.40;99.90
19680;DHT22;9989;48.962;9.182;2023-04-25T14:35:11;13.40;99.90
19680;DHT22;9989;48.962;9.182;2023-04-25T14:37:37;13.30;99.90
19680;DHT22;9989;48.962;9.182;2023-04-25T14:40:03;13.20;99.90
19680;DHT22;9989;48.962;9.182;2023-04-25T14:42:30;13.00;99.90
19680;DHT22;9989;48.962;9.182;2023-04-25T14:44:55;12.90;99.90
19680;DHT22;9989;48.962;9.182;2023-04-25T14:47:21;12.70;99.90
19680;DHT22;9989;48.962;9.182;2023-04-25T14:49:46;12.70;99.90
19680;DHT22;9989;48.962;9.182;2023-04-25T14:52:19;12.80;99.90
19680;DHT22;9989;48.962;9.182;2023-04-25T14:54:46;13.10;99.90
19680;DHT22;9989;48.962;9.182;2023-04-25T14:57:11;13.30;99.90
19680;DHT22;9989;48.962;9.182;2023-04-25T14:59:37;13.60;99.90
19680;DHT22;9989;48.962;9.182;2023-04-25T15:02:05;13.80;99.90
19680;DHT22;9989;48.962;9.182;2023-04-25T15:04:31;14.00;99.90
19680;DHT22;9989;48.962;9.182;2023-04-25T15:06:56;14.00;99.90
19680;DHT22;9989;48.962;9.182;2023-04-25T15:09:22;13.90;99.90
19680;DHT22;9989;48.962;9.182;2023-04-25T15:11:49;13.80;99.90
19680;DHT22;9989;48.962;9.182;2023-04-25T15:14:16;13.70;99.90
19680;DHT22;9989;48.962;9.182;2023-04-25T15:16:42;13.70;99.90
19680;DHT22;9989;48.962;9.182;2023-04-25T15:19:07;13.70;99.90
19680;DHT22;9989;48.962;9.182;2023-04-25T15:21:33;13.70;99.90
19680;DHT22;9989;48.962;9.182;2023-04-25T15:23:59;13.80;99.90
19680;DHT22;9989;48.962;9.182;2023-04-25T15:26:25;13.80;99.90
19680;DHT22;9989;48.962;9.182;2023-04-25T15:28:51;14.00;99.90
19680;DHT22;9989;48.962;9.182;2023-04-25T15:31:17;14.20;99.90
19680;DHT22;9989;48.962;9.182;2023-04-25T15:33:43;14.40;99.90
19680;DHT22;9989;48.962;9.182;2023-04-25T15:36:08;14.60;99.90
19680;DHT22;9989;48.962;9.182;2023-04-25T15:38:35;14.90;99.90
19680;DHT22;9989;48.962;9.182;2023-04-25T15:44:24;15.10;99.90
19680;DHT22;9989;48.962;9.182;2023-04-25T15:46:49;15.00;99.90
19680;DHT22;9989;48.962;9.182;2023-04-25T15:49:15;14.90;99.90
19680;DHT22;9989;48.962;9.182;2023-04-25T15:51:41;14.70;99.90
19680;DHT22;9989;48.962;9.182;2023-04-25T15:54:06;14.50;99.90
19680;DHT22;9989;48.962;9.182;2023-04-25T15:56:32;14.30;99.90
19680;DHT22;9989;48.962;9.182;2023-04-25T15:58:58;14.10;99.90
19680;DHT22;9989;48.962;9.182;2023-04-25T16:01:23;13.90;99.90
19680;DHT22;9989;48.962;9.182;2023-04-25T16:03:51;13.70;99.90
19680;DHT22;9989;48.962;9.182;2023-04-25T16:06:17;13.50;99.90
19680;DHT22;9989;48.962;9.182;2023-04-25T16:08:42;13.40;99.90